Time;durP1;ratioP1;P1;durP2;ratioP2;P2;SDS_P1;SDS_P2;PMS_P1;PMS_P2;Temp;Humidity;BMP_temperature;BMP_pressure;BME280_temperature;BME280_humidity;BME280_pressure;Samples;Min_cycle;Max_cycle;Signal;HPM_P1;HPM_P2
2023/03/30 00:01:18;;;;;;;5.87;2.30;;;15.80;52.30;;;;;;5041473;28;20428;-85
2023/03/30 00:03:47;;;;;;;4.27;2.33;;;15.90;52.40;;;;;;5051816;28;20449;-87
2023/03/30 00:06:20;;;;;;;3.37;2.27;;;15.90;52.20;;;;;;5033954;28;20539;-88
2023/03/30 00:08:48;;;;;;;5.50;3.80;;;16.00;52.10;;;;;;5068977;28;20471;-88
2023/03/30 00:11:16;;;;;;;3.10;2.17;;;16.00;52.20;;;;;;5068697;28;20518;-88
2023/03/30 00:13:43;;;;;;;6.43;2.57;;;16.00;52.30;;;;;;5025569;28;20510;-87
2023/03/30 00:16:12;;;;;;;2.50;2.23;;;16.00;52.40;;;;;;5033420;28;20484;-87
2023/03/30 00:18:40;;;;;;;6.60;2.67;;;16.00;52.70;;;;;;5037429;28;20466;-87
2023/03/30 00:21:09;;;;;;;3.40;2.37;;;15.80;52.80;;;;;;5049046;28;20463;-86
2023/03/30 00:23:37;;;;;;;2.40;2.20;;;15.90;53.00;;;;;;5035061;28;20480;-86
2023/03/30 00:26:04;;;;;;;4.37;2.50;;;15.90;53.00;;;;;;5066379;28;20445;-86
2023/03/30 00:28:31;;;;;;;3.57;2.73;;;15.90;52.80;;;;;;5060641;28;20464;-86
2023/03/30 00:30:59;;;;;;;4.33;2.80;;;15.90;52.90;;;;;;5044443;28;20450;-88
2023/03/30 00:33:26;;;;;;;6.93;2.80;;;15.90;53.20;;;;;;5061179;28;20441;-87
2023/03/30 00:35:54;;;;;;;4.80;3.33;;;15.90;53.40;;;;;;5057655;28;20439;-87
2023/03/30 00:38:24;;;;;;;5.60;3.37;;;15.90;53.50;;;;;;5051392;28;20475;-88
2023/03/30 00:40:53;;;;;;;4.37;2.70;;;15.90;53.80;;;;;;5057114;28;20974;-87
2023/03/30 00:43:20;;;;;;;6.27;3.50;;;15.90;54.10;;;;;;5066458;28;20440;-87
2023/03/30 00:45:48;;;;;;;3.47;2.70;;;15.90;54.50;;;;;;5051791;28;20435;-87
2023/03/30 00:48:18;;;;;;;4.70;4.07;;;15.70;54.60;;;;;;5043897;28;20601;-87
2023/03/30 00:50:47;;;;;;;5.03;3.70;;;15.60;54.90;;;;;;5039893;28;20497;-89
2023/03/30 00:53:18;;;;;;;5.27;3.57;;;15.60;54.90;;;;;;5048237;28;20957;-86
2023/03/30 00:55:49;;;;;;;4.13;3.07;;;15.50;55.20;;;;;;5047475;28;20495;-88
2023/03/30 00:58:17;;;;;;;4.23;3.30;;;15.50;55.20;;;;;;5050952;28;20471;-88
2023/03/30 01:00:46;;;;;;;5.20;3.07;;;15.40;55.50;;;;;;5039896;28;20550;-87
2023/03/30 01:03:17;;;;;;;5.60;3.90;;;15.30;55.80;;;;;;5070036;28;20487;-87
2023/03/30 01:05:45;;;;;;;4.93;3.23;;;15.30;55.70;;;;;;5079636;28;20466;-87
2023/03/30 01:08:15;;;;;;;3.67;2.87;;;15.30;55.80;;;;;;5046648;28;20488;-88
2023/03/30 01:10:42;;;;;;;3.57;2.40;;;15.20;55.70;;;;;;5038678;28;20450;-89
2023/03/30 01:13:12;;;;;;;5.17;3.00;;;15.20;56.20;;;;;;5046337;28;20952;-87
2023/03/30 01:15:49;;;;;;;4.03;3.50;;;15.00;56.80;;;;;;5047063;28;20441;-87
2023/03/30 01:18:27;;;;;;;4.63;3.13;;;15.00;56.60;;;;;;5049961;28;20466;-88
2023/03/30 01:21:28;;;;;;;4.70;3.67;;;15.20;56.30;;;;;;5032205;28;20459;-88
2023/03/30 01:24:20;;;;;;;5.83;3.50;;;15.30;55.60;;;;;;5052734;28;20531;-88
2023/03/30 01:26:52;;;;;;;4.70;3.43;;;15.20;55.80;;;;;;5040077;28;20451;-87
2023/03/30 01:29:49;;;;;;;6.60;3.37;;;15.20;55.80;;;;;;5048914;28;20531;-87
2023/03/30 01:32:55;;;;;;;12.37;3.97;;;15.30;55.40;;;;;;5028667;28;20490;-87
2023/03/30 01:35:42;;;;;;;9.63;3.57;;;15.30;55.20;;;;;;5042568;28;20452;-88
2023/03/30 01:38:42;;;;;;;11.37;3.57;;;15.10;55.20;;;;;;5038743;28;20483;-85
2023/03/30 01:41:18;;;;;;;10.53;3.20;;;14.70;55.90;;;;;;5009641;28;20468;-87
2023/03/30 01:43:51;;;;;;;4.10;3.03;;;14.80;55.80;;;;;;5052602;28;20480;-90
2023/03/30 01:46:23;;;;;;;11.13;3.67;;;14.90;55.80;;;;;;5052800;28;20456;-88
2023/03/30 01:48:59;;;;;;;13.53;4.63;;;15.10;55.40;;;;;;5054638;28;21060;-88
2023/03/30 01:51:31;;;;;;;8.10;3.83;;;15.30;55.20;;;;;;5035237;28;20462;-87
2023/03/30 01:54:04;;;;;;;10.17;4.43;;;15.50;55.00;;;;;;5046024;28;20437;-88
2023/03/30 01:56:37;;;;;;;10.50;4.23;;;15.60;54.80;;;;;;5036817;28;20479;-87
2023/03/30 01:59:08;;;;;;;5.80;4.23;;;15.60;54.80;;;;;;5053148;28;20443;-87
2023/03/30 02:01:38;;;;;;;12.83;4.03;;;15.60;54.80;;;;;;5034577;28;20995;-87
2023/03/30 02:04:08;;;;;;;6.67;4.47;;;15.60;54.50;;;;;;5037555;28;20448;-87
2023/03/30 02:06:38;;;;;;;10.27;3.60;;;15.60;54.50;;;;;;5053659;28;20522;-89
2023/03/30 02:09:08;;;;;;;15.53;4.87;;;15.60;54.70;;;;;;5045447;28;20452;-86
2023/03/30 02:11:39;;;;;;;11.10;3.43;;;15.60;54.80;;;;;;5063513;28;20439;-86
2023/03/30 02:14:09;;;;;;;6.53;3.47;;;15.60;54.80;;;;;;5036731;28;20452;-87
2023/03/30 02:16:41;;;;;;;6.10;3.70;;;15.30;55.20;;;;;;5034627;28;20440;-88
2023/03/30 02:19:08;;;;;;;8.67;4.03;;;15.40;55.20;;;;;;5045745;28;21083;-88
2023/03/30 02:21:36;;;;;;;9.30;3.80;;;15.40;55.10;;;;;;5053699;28;20460;-85
2023/03/30 02:24:07;;;;;;;6.07;3.70;;;15.50;55.00;;;;;;5036036;28;20466;-87
2023/03/30 02:26:37;;;;;;;10.53;3.60;;;15.50;55.20;;;;;;5055021;28;20973;-87
2023/03/30 02:29:04;;;;;;;12.40;3.77;;;15.50;55.10;;;;;;5068426;28;20463;-86
2023/03/30 02:31:31;;;;;;;8.83;3.40;;;15.60;54.80;;;;;;5048000;28;20469;-86
2023/03/30 02:34:14;;;;;;;8.40;2.87;;;15.60;54.80;;;;;;5028402;28;20949;-86
2023/03/30 02:37:05;;;;;;;9.03;3.53;;;15.60;54.70;;;;;;5064884;28;20536;-86
2023/03/30 02:39:42;;;;;;;6.73;3.57;;;15.60;54.70;;;;;;5049410;28;20437;-88
2023/03/30 02:42:36;;;;;;;6.27;3.30;;;15.50;54.90;;;;;;5036788;28;20440;-88
2023/03/30 02:45:25;;;;;;;7.33;3.70;;;15.50;54.40;;;;;;5047638;28;20451;-88
2023/03/30 02:48:07;;;;;;;13.10;3.33;;;15.30;54.40;;;;;;5032717;28;20490;-86
2023/03/30 02:50:43;;;;;;;4.47;3.40;;;15.10;55.10;;;;;;5036089;28;20435;-86
2023/03/30 02:53:32;;;;;;;3.27;2.47;;;15.10;55.40;;;;;;5050517;28;21007;-88
2023/03/30 02:56:03;;;;;;;7.70;3.07;;;14.90;55.70;;;;;;5040958;28;20527;-86
2023/03/30 02:58:46;;;;;;;5.27;3.13;;;15.00;55.90;;;;;;5060009;28;20616;-87
2023/03/30 03:01:23;;;;;;;13.93;4.77;;;15.10;55.80;;;;;;5044831;28;21412;-88
2023/03/30 03:03:58;;;;;;;8.50;3.90;;;15.10;56.10;;;;;;5054034;28;20460;-88
2023/03/30 03:06:28;;;;;;;16.10;4.90;;;15.20;56.20;;;;;;5053698;28;20448;-88
2023/03/30 03:08:56;;;;;;;10.47;3.67;;;15.20;56.00;;;;;;5038118;28;20465;-86
2023/03/30 03:11:26;;;;;;;6.13;3.70;;;15.30;55.70;;;;;;5055267;28;20441;-90
2023/03/30 03:13:55;;;;;;;3.60;2.33;;;15.40;55.70;;;;;;5065550;28;20456;-87
2023/03/30 03:16:22;;;;;;;6.13;2.40;;;15.20;55.10;;;;;;5048666;28;20440;-87
2023/03/30 03:19:04;;;;;;;5.80;2.60;;;15.10;55.40;;;;;;5030860;28;20451;-86
2023/03/30 03:21:31;;;;;;;4.40;3.20;;;15.10;55.40;;;;;;5038205;28;20459;-88
2023/03/30 03:23:58;;;;;;;7.30;2.97;;;15.20;56.40;;;;;;5061216;28;20485;-88
2023/03/30 03:26:36;;;;;;;8.67;5.50;;;15.30;56.20;;;;;;5037757;28;20536;-86
2023/03/30 03:29:05;;;;;;;124.47;58.83;;;15.40;55.40;;;;;;5037525;28;20522;-88
2023/03/30 03:31:32;;;;;;;64.70;34.47;;;15.30;56.00;;;;;;5047505;28;20444;-88
2023/03/30 03:34:00;;;;;;;13.87;7.50;;;15.40;55.60;;;;;;5036738;28;20440;-87
2023/03/30 03:36:46;;;;;;;14.93;5.80;;;15.50;55.90;;;;;;5030728;28;20453;-88
2023/03/30 03:39:13;;;;;;;10.00;4.50;;;15.40;56.10;;;;;;5052022;28;20440;-89
2023/03/30 03:41:40;;;;;;;8.43;3.60;;;15.20;56.50;;;;;;5063761;28;20494;-86
2023/03/30 03:44:09;;;;;;;9.60;4.47;;;15.00;56.80;;;;;;5047286;28;20449;-89
2023/03/30 03:46:36;;;;;;;5.83;3.80;;;15.10;57.20;;;;;;5050599;28;20584;-88
2023/03/30 03:49:03;;;;;;;21.13;11.63;;;15.10;56.70;;;;;;5049727;28;20452;-87
2023/03/30 03:51:31;;;;;;;10.23;5.40;;;15.00;57.10;;;;;;5044602;28;20527;-87
2023/03/30 03:53:59;;;;;;;4.90;3.80;;;15.10;57.30;;;;;;5039145;28;20439;-87
2023/03/30 03:56:26;;;;;;;5.00;3.60;;;15.10;57.10;;;;;;5035572;28;20995;-86
2023/03/30 03:58:55;;;;;;;6.80;3.90;;;15.10;57.30;;;;;;5063814;28;20461;-87
2023/03/30 04:01:23;;;;;;;6.47;3.47;;;15.00;57.70;;;;;;5034509;28;20560;-87
2023/03/30 04:03:50;;;;;;;4.47;2.80;;;14.80;58.00;;;;;;5053682;28;20451;-88
2023/03/30 04:06:17;;;;;;;7.63;3.47;;;14.90;57.90;;;;;;5035105;28;22033;-88
2023/03/30 04:08:44;;;;;;;10.03;4.40;;;15.10;57.30;;;;;;5044284;28;20470;-88
2023/03/30 04:11:21;;;;;;;16.20;10.20;;;14.90;57.70;;;;;;5045355;28;20535;-87
2023/03/30 04:14:08;;;;;;;11.83;6.63;;;14.60;59.20;;;;;;5056883;28;20461;-88
2023/03/30 04:16:47;;;;;;;17.83;5.50;;;14.50;60.30;;;;;;5053920;28;20508;-89
2023/03/30 04:19:52;;;;;;;7.03;4.87;;;14.80;59.30;;;;;;5004509;28;20535;-87
2023/03/30 04:22:24;;;;;;;6.47;4.30;;;14.80;58.70;;;;;;5052076;28;20476;-87
2023/03/30 04:25:13;;;;;;;16.73;9.33;;;14.90;58.10;;;;;;5065854;28;20456;-88
2023/03/30 04:27:59;;;;;;;19.23;12.40;;;14.90;57.80;;;;;;5044168;28;20526;-87
2023/03/30 04:30:57;;;;;;;25.13;13.23;;;14.70;58.90;;;;;;5050777;28;20878;-86
2023/03/30 04:33:49;;;;;;;11.00;6.23;;;14.70;61.20;;;;;;5047065;28;20985;-86
2023/03/30 04:36:37;;;;;;;20.93;11.70;;;15.00;60.40;;;;;;5028988;28;20466;-86
2023/03/30 04:39:42;;;;;;;10.07;4.43;;;15.20;59.10;;;;;;5033420;28;21082;-87
2023/03/30 04:42:36;;;;;;;8.30;4.40;;;15.10;58.30;;;;;;5047835;28;20538;-86
2023/03/30 04:45:35;;;;;;;11.67;5.30;;;15.10;57.80;;;;;;5017344;28;20448;-87
2023/03/30 04:48:23;;;;;;;6.33;4.17;;;15.20;57.80;;;;;;5058751;28;20479;-87
2023/03/30 04:51:24;;;;;;;9.60;3.47;;;15.30;58.00;;;;;;5022544;28;20444;-87
2023/03/30 04:54:14;;;;;;;6.17;3.20;;;15.20;59.30;;;;;;5050008;28;20456;-87
2023/03/30 04:57:11;;;;;;;10.93;2.70;;;15.20;60.00;;;;;;5009996;28;20472;-87
2023/03/30 04:59:37;;;;;;;7.23;2.77;;;15.20;60.80;;;;;;5061981;28;20461;-87
2023/03/30 05:02:25;;;;;;;9.73;3.37;;;15.30;61.40;;;;;;5046665;28;20460;-88
2023/03/30 05:05:11;;;;;;;7.67;2.77;;;15.50;61.90;;;;;;5047675;28;20458;-88
2023/03/30 05:08:00;;;;;;;8.33;3.10;;;15.70;61.10;;;;;;5049864;28;20620;-88
2023/03/30 05:10:54;;;;;;;11.90;3.47;;;15.80;60.90;;;;;;5031760;28;20444;-88
2023/03/30 05:13:40;;;;;;;7.13;3.23;;;16.00;60.40;;;;;;5047566;28;20457;-87
2023/03/30 05:16:34;;;;;;;6.97;3.00;;;15.80;59.30;;;;;;5038578;28;20479;-88
2023/03/30 05:19:27;;;;;;;6.00;3.20;;;15.90;61.20;;;;;;5043632;28;21044;-86
2023/03/30 05:22:13;;;;;;;7.87;2.70;;;16.00;61.30;;;;;;5045614;28;20463;-87
2023/03/30 05:24:47;;;;;;;8.10;3.23;;;16.00;61.70;;;;;;5067839;28;20448;-88
2023/03/30 05:27:21;;;;;;;9.10;2.80;;;16.10;62.30;;;;;;5066861;28;20470;-87
2023/03/30 05:30:07;;;;;;;13.10;3.00;;;16.00;61.60;;;;;;5032893;28;20526;-89
2023/03/30 05:32:33;;;;;;;10.23;3.10;;;16.10;62.60;;;;;;5079753;28;20449;-88
2023/03/30 05:35:30;;;;;;;6.00;2.67;;;16.00;63.40;;;;;;5015544;28;20443;-88
2023/03/30 05:38:07;;;;;;;8.47;2.93;;;16.10;62.50;;;;;;5050016;28;20513;-89
2023/03/30 05:40:53;;;;;;;7.60;4.07;;;16.30;63.40;;;;;;5045546;28;20451;-88
2023/03/30 05:43:20;;;;;;;8.93;4.30;;;16.10;61.60;;;;;;5057776;28;20448;-88
2023/03/30 05:46:03;;;;;;;11.90;4.13;;;16.00;59.70;;;;;;5051525;28;20459;-87
2023/03/30 05:48:48;;;;;;;6.57;4.67;;;16.00;59.00;;;;;;5076154;28;20935;-89
2023/03/30 05:51:18;;;;;;;10.37;5.30;;;16.10;59.00;;;;;;5066252;28;20450;-88
2023/03/30 05:54:01;;;;;;;8.60;5.50;;;15.60;59.10;;;;;;5030183;28;20448;-89
2023/03/30 05:56:52;;;;;;;8.27;5.30;;;15.50;59.30;;;;;;5051806;28;20508;-87
2023/03/30 05:59:31;;;;;;;9.70;4.90;;;15.70;59.50;;;;;;5030735;28;20448;-86
2023/03/30 06:02:07;;;;;;;12.53;5.13;;;15.80;59.50;;;;;;5046289;28;20467;-86
2023/03/30 06:04:34;;;;;;;12.07;6.37;;;15.80;59.30;;;;;;5049414;28;20453;-85
2023/03/30 06:07:03;;;;;;;8.60;4.93;;;15.90;59.70;;;;;;5055371;28;20471;-87
2023/03/30 06:09:30;;;;;;;10.60;7.10;;;15.90;59.70;;;;;;5051845;28;20459;-85
2023/03/30 06:12:01;;;;;;;16.23;6.07;;;15.50;61.30;;;;;;5036678;28;21157;-86
2023/03/30 06:14:30;;;;;;;10.73;5.20;;;15.30;62.30;;;;;;5045552;28;20448;-85
2023/03/30 06:17:21;;;;;;;18.43;6.40;;;15.50;62.10;;;;;;5034328;28;20568;-87
2023/03/30 06:19:49;;;;;;;11.10;5.70;;;15.30;62.60;;;;;;5036591;28;20455;-87
2023/03/30 06:22:16;;;;;;;6.83;4.57;;;15.40;62.80;;;;;;5067314;28;20473;-87
2023/03/30 06:24:51;;;;;;;9.27;4.97;;;15.30;61.90;;;;;;5044013;28;20472;-86
2023/03/30 06:27:21;;;;;;;27.37;17.03;;;15.10;62.10;;;;;;5059897;28;20483;-88
2023/03/30 06:29:48;;;;;;;39.83;29.93;;;14.90;63.70;;;;;;5045397;28;20445;-88
2023/03/30 06:32:15;;;;;;;23.13;8.60;;;15.00;64.00;;;;;;5042009;28;20452;-87
2023/03/30 06:35:16;;;;;;;17.07;11.83;;;14.80;65.00;;;;;;5051947;28;20450;-88
2023/03/30 06:37:44;;;;;;;5.90;4.30;;;14.50;67.60;;;;;;5037118;28;20498;-87
2023/03/30 06:40:12;;;;;;;14.73;4.77;;;14.60;68.60;;;;;;5041344;28;20527;-87
2023/03/30 06:42:43;;;;;;;5.57;3.83;;;14.90;70.40;;;;;;5061324;28;20487;-88
2023/03/30 06:45:19;;;;;;;8.17;4.07;;;15.10;70.20;;;;;;5043427;28;20452;-88
2023/03/30 06:47:46;;;;;;;13.73;4.70;;;15.10;72.00;;;;;;5037449;28;20994;-88
2023/03/30 06:50:15;;;;;;;12.90;5.20;;;15.40;70.70;;;;;;5052642;28;20447;-88
2023/03/30 06:52:53;;;;;;;13.43;4.50;;;15.40;71.00;;;;;;5051993;28;20441;-88
2023/03/30 06:55:22;;;;;;;7.43;4.97;;;15.60;70.90;;;;;;5037161;28;20456;-88
2023/03/30 06:57:50;;;;;;;7.80;3.47;;;15.50;71.20;;;;;;5048481;28;20457;-88
2023/03/30 07:00:19;;;;;;;9.50;4.83;;;15.50;71.90;;;;;;5049909;28;20445;-88
2023/03/30 07:03:05;;;;;;;11.23;5.30;;;15.60;71.50;;;;;;5048339;28;20463;-89
2023/03/30 07:05:35;;;;;;;9.03;3.97;;;15.60;72.40;;;;;;5054718;28;20443;-88
2023/03/30 07:08:28;;;;;;;10.97;4.43;;;15.50;72.90;;;;;;5040388;28;20489;-88
2023/03/30 07:10:56;;;;;;;8.93;4.20;;;15.60;72.80;;;;;;5036348;28;20449;-89
2023/03/30 07:13:27;;;;;;;17.67;4.90;;;15.70;71.80;;;;;;5049390;28;21145;-88
2023/03/30 07:15:54;;;;;;;14.10;5.63;;;15.70;72.00;;;;;;5028869;28;21030;-88
2023/03/30 07:18:20;;;;;;;19.93;7.87;;;15.60;72.70;;;;;;5042673;28;20468;-87
2023/03/30 07:20:50;;;;;;;11.43;5.40;;;15.50;73.30;;;;;;5050739;28;20458;-88
2023/03/30 07:23:20;;;;;;;6.93;3.73;;;15.40;73.70;;;;;;5060556;28;20467;-87
2023/03/30 07:25:48;;;;;;;11.70;4.10;;;15.30;75.00;;;;;;5051938;28;20447;-87
2023/03/30 07:28:20;;;;;;;7.90;3.80;;;15.20;75.10;;;;;;5040017;28;20890;-87
2023/03/30 07:30:48;;;;;;;13.30;3.00;;;15.00;76.40;;;;;;5040634;28;21025;-87
2023/03/30 07:33:17;;;;;;;8.23;3.50;;;15.10;76.80;;;;;;5037909;28;20452;-86
2023/03/30 07:35:45;;;;;;;11.47;3.53;;;15.10;77.00;;;;;;5047569;28;20453;-87
2023/03/30 07:38:14;;;;;;;11.03;3.93;;;15.30;75.90;;;;;;5052138;28;20472;-86
2023/03/30 07:40:45;;;;;;;10.00;3.57;;;15.30;75.90;;;;;;5059136;28;20506;-88
2023/03/30 07:43:13;;;;;;;12.23;4.03;;;15.40;76.00;;;;;;5046593;28;20472;-86
2023/03/30 07:45:41;;;;;;;7.83;3.23;;;15.60;75.60;;;;;;5033399;28;20829;-86
2023/03/30 07:48:13;;;;;;;13.27;4.47;;;15.60;75.40;;;;;;5043668;28;21116;-88
2023/03/30 07:50:41;;;;;;;5.40;2.60;;;15.40;76.30;;;;;;5027226;28;20559;-86
2023/03/30 07:53:08;;;;;;;6.33;3.53;;;15.40;76.40;;;;;;5044662;28;20526;-87
2023/03/30 07:55:37;;;;;;;20.40;4.03;;;15.50;76.10;;;;;;5029126;28;20459;-89
2023/03/30 07:58:11;;;;;;;7.20;4.03;;;15.50;75.70;;;;;;5056203;28;20555;-88
2023/03/30 08:00:39;;;;;;;11.40;3.63;;;15.80;75.70;;;;;;5042015;28;20452;-88
2023/03/30 08:03:43;;;;;;;12.13;2.90;;;16.10;74.70;;;;;;5055283;28;20464;-88
2023/03/30 08:06:11;;;;;;;7.73;3.60;;;16.10;73.80;;;;;;5054644;28;20490;-88
2023/03/30 08:08:42;;;;;;;8.00;3.30;;;16.20;73.60;;;;;;5027512;28;20463;-87
2023/03/30 08:11:10;;;;;;;7.80;3.60;;;16.10;74.00;;;;;;5031967;28;20444;-87
2023/03/30 08:13:37;;;;;;;7.80;3.73;;;16.30;73.40;;;;;;5054871;28;20463;-87
2023/03/30 08:16:07;;;;;;;7.27;3.53;;;16.30;72.90;;;;;;5063193;28;21187;-88
2023/03/30 08:18:35;;;;;;;10.70;3.57;;;16.30;73.00;;;;;;5042357;28;20495;-86
2023/03/30 08:21:05;;;;;;;12.17;4.90;;;16.50;72.50;;;;;;5069700;28;20451;-88
2023/03/30 08:23:31;;;;;;;11.63;3.33;;;16.50;72.60;;;;;;5059474;28;20937;-87
2023/03/30 08:25:59;;;;;;;7.60;3.43;;;16.50;72.80;;;;;;5045571;28;20967;-87
2023/03/30 08:28:26;;;;;;;9.17;3.60;;;16.50;71.80;;;;;;5039093;28;20467;-86
2023/03/30 08:30:53;;;;;;;8.90;3.73;;;16.50;72.50;;;;;;5046406;28;20451;-88
2023/03/30 08:33:21;;;;;;;8.50;4.17;;;16.20;73.60;;;;;;5044064;28;20456;-87
2023/03/30 08:35:49;;;;;;;5.80;3.30;;;15.90;75.10;;;;;;5046656;28;20469;-87
2023/03/30 08:38:18;;;;;;;14.40;4.13;;;15.80;75.30;;;;;;5024593;28;21189;-87
2023/03/30 08:40:46;;;;;;;7.93;3.83;;;15.80;75.30;;;;;;5055118;28;20459;-88
2023/03/30 08:43:30;;;;;;;6.60;3.60;;;15.80;75.20;;;;;;5028217;28;20472;-88
2023/03/30 08:45:59;;;;;;;6.93;4.70;;;15.70;75.30;;;;;;5054082;28;21252;-88
2023/03/30 08:48:31;;;;;;;12.90;3.83;;;15.70;75.60;;;;;;5059350;28;20858;-88
2023/03/30 08:51:00;;;;;;;10.33;3.50;;;15.60;75.70;;;;;;5072946;28;20448;-88
2023/03/30 08:53:30;;;;;;;8.57;4.70;;;15.90;75.20;;;;;;5025404;28;20540;-89
2023/03/30 08:56:01;;;;;;;8.57;3.53;;;16.10;74.70;;;;;;5033981;28;20435;-87
2023/03/30 08:58:38;;;;;;;9.83;4.83;;;16.10;73.60;;;;;;5062561;28;20460;-87
2023/03/30 09:01:15;;;;;;;13.90;5.03;;;16.10;72.60;;;;;;5054266;28;20497;-88
2023/03/30 09:03:54;;;;;;;6.50;4.33;;;16.40;73.20;;;;;;5038871;28;20806;-87
2023/03/30 09:06:27;;;;;;;6.73;3.87;;;16.70;71.60;;;;;;5052122;28;20444;-87
2023/03/30 09:08:55;;;;;;;9.07;3.60;;;17.10;71.00;;;;;;5062630;28;20468;-87
2023/03/30 09:11:30;;;;;;;3.60;3.30;;;17.50;70.10;;;;;;5047715;28;20479;-87
2023/03/30 09:14:01;;;;;;;6.87;3.60;;;17.60;68.90;;;;;;5077123;28;20454;-89
2023/03/30 09:16:38;;;;;;;5.23;3.47;;;17.70;68.60;;;;;;5059970;28;20462;-91
2023/03/30 09:19:09;;;;;;;7.50;3.27;;;17.80;68.10;;;;;;5062636;28;20479;-91
2023/03/30 09:21:36;;;;;;;7.33;4.17;;;17.60;68.70;;;;;;5038658;28;20459;-89
2023/03/30 09:24:12;;;;;;;7.60;4.93;;;17.70;68.00;;;;;;5033896;28;20452;-88
2023/03/30 09:26:46;;;;;;;5.00;4.20;;;17.50;68.30;;;;;;5029861;28;20455;-89
2023/03/30 09:29:19;;;;;;;6.53;3.97;;;17.40;68.80;;;;;;5036526;28;20447;-88
2023/03/30 09:31:51;;;;;;;7.20;4.10;;;17.40;69.20;;;;;;5077543;28;20542;-88
2023/03/30 09:34:25;;;;;;;6.67;3.90;;;17.40;69.30;;;;;;5049651;28;20454;-88
2023/03/30 09:36:57;;;;;;;11.13;4.77;;;17.40;68.50;;;;;;5062585;28;20471;-88
2023/03/30 09:39:28;;;;;;;16.03;4.20;;;17.40;69.20;;;;;;5030357;28;20452;-88
2023/03/30 09:42:07;;;;;;;6.83;4.07;;;17.40;68.40;;;;;;5027196;28;20954;-89
2023/03/30 09:44:37;;;;;;;8.73;3.70;;;17.10;68.90;;;;;;5045390;28;20452;-88
2023/03/30 09:47:19;;;;;;;5.23;3.70;;;17.20;70.00;;;;;;5032627;28;20532;-88
2023/03/30 09:49:46;;;;;;;10.50;3.93;;;17.20;67.90;;;;;;5043915;28;20460;-88
2023/03/30 09:52:21;;;;;;;4.07;3.33;;;17.00;70.30;;;;;;5034199;28;20455;-88
2023/03/30 09:54:49;;;;;;;12.13;4.60;;;17.20;70.20;;;;;;5044225;28;20531;-88
2023/03/30 09:57:28;;;;;;;9.90;4.07;;;17.10;69.80;;;;;;5032281;28;20464;-88
2023/03/30 09:59:55;;;;;;;8.50;3.87;;;17.20;70.40;;;;;;5035783;28;20443;-87
2023/03/30 10:02:26;;;;;;;7.23;3.50;;;17.30;69.80;;;;;;5043387;28;20456;-88
2023/03/30 10:05:03;;;;;;;4.37;3.97;;;17.50;70.00;;;;;;5057922;28;20455;-88
2023/03/30 10:07:36;;;;;;;6.10;3.40;;;17.60;69.90;;;;;;5043297;28;20482;-87
2023/03/30 10:10:15;;;;;;;4.60;3.90;;;17.90;69.30;;;;;;5045227;28;20502;-87
2023/03/30 10:12:44;;;;;;;5.57;3.83;;;18.10;68.30;;;;;;5040981;28;20485;-86
2023/03/30 10:15:17;;;;;;;5.77;3.13;;;18.10;66.40;;;;;;5030642;28;20457;-87
2023/03/30 10:17:46;;;;;;;5.73;4.00;;;18.10;67.00;;;;;;5040510;28;20518;-87
2023/03/30 10:20:24;;;;;;;3.40;3.10;;;18.00;67.30;;;;;;5030849;28;20444;-87
2023/03/30 10:22:53;;;;;;;5.57;3.60;;;18.00;66.70;;;;;;5055609;28;20460;-87
2023/03/30 10:25:26;;;;;;;5.07;3.13;;;18.00;67.00;;;;;;5070855;28;20815;-87
2023/03/30 10:27:55;;;;;;;5.67;3.10;;;18.00;66.50;;;;;;5034117;28;20487;-88
2023/03/30 10:30:26;;;;;;;8.20;3.03;;;18.10;65.90;;;;;;5044111;28;20449;-88
2023/03/30 10:32:56;;;;;;;4.13;3.17;;;18.00;64.70;;;;;;5066162;28;20459;-87
2023/03/30 10:35:27;;;;;;;4.27;2.70;;;17.80;64.20;;;;;;5058706;28;20456;-87
2023/03/30 10:37:57;;;;;;;6.40;2.77;;;17.90;64.20;;;;;;5059227;28;20760;-87
2023/03/30 10:40:32;;;;;;;4.07;2.70;;;18.10;64.00;;;;;;5040697;28;20980;-86
2023/03/30 10:43:01;;;;;;;3.47;2.77;;;17.90;62.60;;;;;;5028746;28;20529;-87
2023/03/30 10:45:34;;;;;;;4.10;2.90;;;18.10;64.00;;;;;;5042391;28;20508;-87
2023/03/30 10:48:15;;;;;;;3.90;2.67;;;18.30;61.80;;;;;;5059585;28;20480;-86
2023/03/30 10:50:53;;;;;;;4.10;2.77;;;18.40;63.00;;;;;;5064232;28;20486;-88
2023/03/30 10:53:31;;;;;;;6.43;2.90;;;18.50;60.20;;;;;;5048634;28;20433;-87
2023/03/30 10:56:06;;;;;;;3.97;2.70;;;18.50;61.30;;;;;;5049556;28;20557;-87
2023/03/30 10:58:49;;;;;;;4.10;2.67;;;18.70;61.00;;;;;;5027535;28;20571;-87
2023/03/30 11:01:26;;;;;;;6.90;3.30;;;18.70;59.00;;;;;;5025083;28;20493;-86
2023/03/30 11:03:58;;;;;;;8.80;3.30;;;18.60;58.70;;;;;;5029401;28;20460;-86
2023/03/30 11:06:28;;;;;;;6.13;2.70;;;18.60;59.20;;;;;;5048588;28;20551;-88
2023/03/30 11:08:58;;;;;;;6.10;2.90;;;18.70;59.10;;;;;;5039589;28;20473;-86
2023/03/30 11:11:32;;;;;;;3.30;2.47;;;18.30;58.10;;;;;;5066670;28;20440;-86
2023/03/30 11:14:02;;;;;;;5.13;2.80;;;18.20;57.80;;;;;;5051003;28;20562;-86
2023/03/30 11:16:38;;;;;;;3.27;2.50;;;18.30;58.40;;;;;;5048996;28;20449;-86
2023/03/30 11:19:13;;;;;;;4.40;3.07;;;18.40;58.70;;;;;;5042894;28;20555;-88
2023/03/30 11:21:45;;;;;;;2.77;2.57;;;18.50;58.10;;;;;;5033448;28;20455;-86
2023/03/30 11:24:14;;;;;;;3.23;2.90;;;18.60;58.30;;;;;;5043198;28;20969;-86
2023/03/30 11:26:48;;;;;;;6.60;2.80;;;18.80;57.60;;;;;;5050870;28;20473;-87
2023/03/30 11:29:30;;;;;;;3.20;2.50;;;18.70;57.10;;;;;;5047230;28;20655;-87
2023/03/30 11:32:08;;;;;;;5.10;3.30;;;18.70;57.10;;;;;;5035093;28;20468;-87
2023/03/30 11:34:50;;;;;;;4.83;2.60;;;18.70;57.50;;;;;;5059325;28;20533;-87
2023/03/30 11:37:26;;;;;;;5.37;2.70;;;18.70;56.70;;;;;;5028385;28;20472;-87
2023/03/30 11:40:00;;;;;;;5.83;3.17;;;18.70;56.40;;;;;;5027597;28;20960;-88
2023/03/30 11:42:31;;;;;;;4.67;2.80;;;19.00;57.30;;;;;;5035209;28;20459;-86
2023/03/30 11:44:58;;;;;;;6.40;2.37;;;18.90;55.40;;;;;;5045420;28;21156;-87
2023/03/30 11:47:40;;;;;;;5.13;4.20;;;18.80;56.70;;;;;;5058178;28;20491;-85
2023/03/30 11:50:23;;;;;;;4.73;2.60;;;18.80;55.40;;;;;;5049836;28;20513;-87
2023/03/30 11:53:04;;;;;;;2.47;2.27;;;18.60;56.40;;;;;;5033623;28;20580;-87
2023/03/30 11:55:56;;;;;;;8.00;2.80;;;18.60;55.70;;;;;;5050698;28;20464;-86
2023/03/30 11:58:34;;;;;;;3.70;2.30;;;18.70;56.30;;;;;;5041688;28;20469;-87
2023/03/30 12:01:18;;;;;;;5.03;2.80;;;18.80;56.60;;;;;;5034030;28;20509;-85
2023/03/30 12:03:47;;;;;;;3.90;2.43;;;19.10;54.80;;;;;;5042591;28;20475;-87
2023/03/30 12:06:28;;;;;;;4.40;2.20;;;19.20;54.30;;;;;;5043542;28;20444;-86
2023/03/30 12:09:23;;;;;;;2.90;2.00;;;19.20;52.80;;;;;;5056638;28;20484;-86
2023/03/30 12:11:54;;;;;;;8.10;2.57;;;19.00;53.30;;;;;;5030106;28;20664;-86
2023/03/30 12:14:48;;;;;;;5.33;2.70;;;19.00;53.70;;;;;;5043613;28;20467;-86
2023/03/30 12:17:26;;;;;;;2.83;1.80;;;19.10;52.90;;;;;;5031306;28;20471;-86
2023/03/30 12:19:59;;;;;;;2.77;1.97;;;19.20;53.40;;;;;;5048420;28;20547;-87
2023/03/30 12:22:33;;;;;;;4.43;2.47;;;19.30;53.60;;;;;;5069864;28;20960;-88
2023/03/30 12:25:12;;;;;;;3.57;3.07;;;19.60;54.10;;;;;;5078836;28;20473;-87
2023/03/30 12:27:52;;;;;;;3.50;2.33;;;19.80;53.00;;;;;;5046464;28;20560;-88
2023/03/30 12:30:27;;;;;;;2.60;1.87;;;20.00;51.70;;;;;;5052810;28;20488;-86
2023/03/30 12:33:03;;;;;;;2.80;1.90;;;20.20;52.80;;;;;;5063489;28;20449;-87
2023/03/30 12:35:55;;;;;;;2.70;1.97;;;20.20;50.40;;;;;;5055511;28;20456;-87
2023/03/30 12:38:25;;;;;;;4.50;2.20;;;20.30;50.30;;;;;;5059380;28;20464;-86
2023/03/30 12:41:13;;;;;;;4.27;1.80;;;20.40;49.20;;;;;;5057793;28;20570;-85
2023/03/30 12:43:54;;;;;;;6.00;2.17;;;20.30;49.40;;;;;;5043595;28;20499;-86
2023/03/30 12:46:30;;;;;;;3.73;1.93;;;20.40;49.10;;;;;;5035722;28;20452;-86
2023/03/30 12:49:06;;;;;;;3.90;1.80;;;20.00;48.40;;;;;;5066251;28;20476;-85
2023/03/30 12:51:54;;;;;;;2.20;2.00;;;19.70;49.40;;;;;;5077732;28;20501;-87
2023/03/30 12:54:45;;;;;;;4.07;2.10;;;19.30;51.30;;;;;;5037034;28;20852;-85
2023/03/30 12:57:24;;;;;;;4.27;2.00;;;19.20;52.20;;;;;;5031360;28;20471;-86
2023/03/30 13:00:23;;;;;;;5.53;2.17;;;19.40;51.30;;;;;;5041920;28;20453;-86
2023/03/30 13:03:15;;;;;;;3.67;2.07;;;19.80;51.50;;;;;;5032456;28;20820;-85
2023/03/30 13:05:43;;;;;;;3.40;1.70;;;19.80;49.40;;;;;;5046425;28;20468;-85
2023/03/30 13:08:20;;;;;;;3.80;1.77;;;19.80;49.40;;;;;;5031627;28;20468;-84
2023/03/30 13:10:47;;;;;;;2.60;1.70;;;19.70;49.40;;;;;;5049291;28;20474;-89
2023/03/30 13:13:21;;;;;;;3.73;1.53;;;19.70;48.70;;;;;;5032638;28;20542;-86
2023/03/30 13:15:50;;;;;;;3.53;1.63;;;19.60;48.40;;;;;;5050271;28;21252;-86
2023/03/30 13:18:34;;;;;;;3.67;1.50;;;19.70;48.70;;;;;;5049035;28;20534;-86
2023/03/30 13:21:22;;;;;;;7.60;3.47;;;19.50;49.00;;;;;;5063022;28;20439;-87
2023/03/30 13:24:20;;;;;;;2.20;1.60;;;19.50;48.80;;;;;;5028227;28;20478;-89